Time;durP1;ratioP1;P1;durP2;ratioP2;P2;SDS_P1;SDS_P2;PMS_P1;PMS_P2;Temp;Humidity;BMP_temperature;BMP_pressure;BME280_temperature;BME280_humidity;BME280_pressure;Samples;Min_cycle;Max_cycle;Signal;HPM_P1;HPM_P2
2022/03/17 00:02:24;;;;;;;37.10;26.30;;;10.40;71.40;;;;;;5072473;28;20296;-57
2022/03/17 00:04:52;;;;;;;37.40;26.15;;;10.30;71.50;;;;;;5072431;28;20196;-57
2022/03/17 00:07:20;;;;;;;34.92;26.50;;;10.40;71.70;;;;;;5072323;28;20293;-57
2022/03/17 00:09:46;;;;;;;34.17;25.00;;;10.30;71.60;;;;;;5071192;28;20239;-57
2022/03/17 00:12:13;;;;;;;32.05;24.35;;;10.30;71.90;;;;;;5072297;28;20205;-57
2022/03/17 00:14:40;;;;;;;34.20;24.70;;;10.30;71.90;;;;;;5072179;28;20262;-57
2022/03/17 00:17:08;;;;;;;33.15;26.20;;;10.30;71.70;;;;;;5074292;28;20307;-56
2022/03/17 00:19:36;;;;;;;36.75;25.90;;;10.30;71.80;;;;;;5076031;28;20197;-57
2022/03/17 00:22:06;;;;;;;36.92;25.67;;;10.20;72.00;;;;;;5075773;28;20290;-57
2022/03/17 00:24:33;;;;;;;35.88;24.70;;;10.20;71.90;;;;;;5074701;28;20262;-57
2022/03/17 00:27:00;;;;;;;35.97;25.90;;;10.30;71.90;;;;;;5075937;28;20207;-57
2022/03/17 00:29:27;;;;;;;37.55;25.27;;;10.30;71.80;;;;;;5075822;28;20228;-57
2022/03/17 00:31:54;;;;;;;36.20;25.65;;;10.40;71.70;;;;;;5075929;28;20315;-57
2022/03/17 00:34:20;;;;;;;38.92;27.73;;;10.40;71.50;;;;;;5075821;28;20246;-57
2022/03/17 00:36:48;;;;;;;39.80;28.85;;;10.40;71.50;;;;;;5075579;28;20250;-57
2022/03/17 00:39:16;;;;;;;38.00;26.70;;;10.40;71.30;;;;;;5074385;28;20652;-57
2022/03/17 00:41:43;;;;;;;35.33;25.52;;;10.50;71.30;;;;;;5075460;28;20713;-58
2022/03/17 00:44:10;;;;;;;39.70;26.40;;;10.40;71.20;;;;;;5075635;28;20537;-57
2022/03/17 00:46:37;;;;;;;35.85;26.67;;;10.40;71.50;;;;;;5075567;28;20299;-57
2022/03/17 00:49:04;;;;;;;33.72;24.50;;;10.30;70.90;;;;;;5075362;28;20205;-57
2022/03/17 00:51:31;;;;;;;36.85;26.13;;;10.30;71.20;;;;;;5075349;28;20655;-57
2022/03/17 00:53:58;;;;;;;36.35;26.08;;;10.40;71.20;;;;;;5074020;28;20211;-57
2022/03/17 00:56:26;;;;;;;36.80;26.20;;;10.40;71.40;;;;;;5075228;28;20618;-57
2022/03/17 00:58:53;;;;;;;33.45;24.60;;;10.40;71.20;;;;;;5075357;28;20660;-56
2022/03/17 01:01:20;;;;;;;38.05;26.08;;;10.50;70.80;;;;;;5075139;28;20327;-56
2022/03/17 01:03:48;;;;;;;38.30;28.23;;;10.40;71.00;;;;;;5075405;28;20306;-57
2022/03/17 01:06:15;;;;;;;32.45;24.20;;;10.40;71.00;;;;;;5075141;28;20201;-57
2022/03/17 01:08:42;;;;;;;37.47;26.67;;;10.40;70.80;;;;;;5073894;28;20205;-56
2022/03/17 01:11:09;;;;;;;36.13;26.13;;;10.40;70.90;;;;;;5075141;28;20228;-57
2022/03/17 01:13:37;;;;;;;38.75;27.13;;;10.30;70.90;;;;;;5075040;28;20250;-57
2022/03/17 01:16:05;;;;;;;38.03;27.15;;;10.30;70.90;;;;;;5074906;28;20727;-56
2022/03/17 01:18:32;;;;;;;41.58;29.15;;;10.20;70.90;;;;;;5074984;28;20229;-56
2022/03/17 01:20:59;;;;;;;39.88;27.50;;;10.30;71.10;;;;;;5074613;28;20259;-57
2022/03/17 01:23:26;;;;;;;37.40;26.70;;;10.30;71.10;;;;;;5073354;28;20319;-57
2022/03/17 01:25:53;;;;;;;38.15;26.90;;;10.30;70.70;;;;;;5074872;28;20201;-57
2022/03/17 01:28:23;;;;;;;39.10;27.42;;;10.20;70.80;;;;;;5074363;28;20204;-57
2022/03/17 01:30:53;;;;;;;42.22;28.83;;;10.20;70.90;;;;;;5074768;28;20208;-57
2022/03/17 01:33:20;;;;;;;39.28;27.55;;;10.20;70.80;;;;;;5074771;28;20208;-57
2022/03/17 01:35:47;;;;;;;39.25;26.75;;;10.20;70.90;;;;;;5074533;28;20786;-57
2022/03/17 01:38:14;;;;;;;37.80;27.83;;;10.30;70.90;;;;;;5073326;28;20204;-57
2022/03/17 01:40:41;;;;;;;43.20;27.73;;;10.20;70.60;;;;;;5074465;28;20274;-57
2022/03/17 01:43:07;;;;;;;41.95;28.30;;;10.20;70.40;;;;;;5074438;28;20291;-57
2022/03/17 01:45:34;;;;;;;37.25;26.98;;;10.20;70.70;;;;;;5074614;28;20204;-58
2022/03/17 01:48:03;;;;;;;41.10;27.55;;;10.20;70.70;;;;;;5074444;28;20200;-57
2022/03/17 01:50:30;;;;;;;37.85;26.33;;;10.10;70.40;;;;;;5074258;28;20329;-57
2022/03/17 01:52:57;;;;;;;35.95;26.42;;;10.10;70.90;;;;;;5072974;28;20239;-57
2022/03/17 01:55:25;;;;;;;40.38;28.10;;;10.10;71.10;;;;;;5074328;28;20207;-57
2022/03/17 01:57:52;;;;;;;37.03;27.02;;;10.10;71.10;;;;;;5074201;28;20228;-57
2022/03/17 02:00:21;;;;;;;43.90;29.50;;;10.00;70.70;;;;;;5074115;28;20229;-57
2022/03/17 02:02:49;;;;;;;41.35;27.85;;;10.00;70.90;;;;;;5074132;28;20254;-57
2022/03/17 02:05:18;;;;;;;41.03;29.63;;;10.10;71.20;;;;;;5073797;28;20222;-57
2022/03/17 02:07:47;;;;;;;40.42;28.77;;;10.00;70.50;;;;;;5072686;28;20204;-57
2022/03/17 02:10:14;;;;;;;40.88;26.77;;;9.90;70.90;;;;;;5073959;28;20209;-57
2022/03/17 02:15:27;;;;;;;39.25;27.60;;;10.00;71.30;;;;;;5073919;28;20285;-57
2022/03/17 02:17:54;;;;;;;38.85;28.45;;;10.00;71.10;;;;;;5073598;28;20229;-58
2022/03/17 02:20:24;;;;;;;40.97;28.73;;;10.00;71.20;;;;;;5073497;28;20242;-57
2022/03/17 02:22:53;;;;;;;40.55;27.80;;;10.00;71.20;;;;;;5072236;28;20236;-57
2022/03/17 02:25:34;;;;;;;41.03;28.10;;;10.00;71.30;;;;;;5073791;28;20212;-57
2022/03/17 02:28:02;;;;;;;40.33;28.98;;;10.00;71.50;;;;;;5073494;28;20209;-57
2022/03/17 02:30:30;;;;;;;36.00;26.80;;;9.90;71.30;;;;;;5073627;28;20228;-57
2022/03/17 02:33:01;;;;;;;41.80;27.75;;;10.00;71.30;;;;;;5073511;28;20197;-57
2022/03/17 02:35:29;;;;;;;36.08;26.85;;;10.00;71.30;;;;;;5073267;28;20532;-57
2022/03/17 02:37:58;;;;;;;39.92;27.88;;;10.00;71.30;;;;;;5071997;28;20390;-57
2022/03/17 02:40:26;;;;;;;43.40;29.95;;;10.00;71.50;;;;;;5072595;28;20306;-57
2022/03/17 02:42:53;;;;;;;44.63;28.55;;;10.00;71.40;;;;;;5073384;28;20310;-57
2022/03/17 02:45:22;;;;;;;44.22;29.92;;;10.00;71.50;;;;;;5073272;28;20232;-57
2022/03/17 02:47:49;;;;;;;40.58;26.90;;;10.00;71.50;;;;;;5073195;28;20200;-57
2022/03/17 02:50:16;;;;;;;39.00;27.92;;;9.90;71.70;;;;;;5073169;28;20211;-57
2022/03/17 02:52:43;;;;;;;40.75;28.58;;;10.00;71.60;;;;;;5071717;28;20278;-57
2022/03/17 02:55:11;;;;;;;41.95;29.25;;;9.90;71.50;;;;;;5073066;28;20196;-57
2022/03/17 02:57:40;;;;;;;44.15;28.38;;;9.90;71.60;;;;;;5073026;28;20208;-57
2022/03/17 03:00:09;;;;;;;37.40;26.98;;;9.90;71.60;;;;;;5073027;28;20579;-57
2022/03/17 03:02:37;;;;;;;38.95;28.33;;;9.90;71.90;;;;;;5073046;28;20631;-57
2022/03/17 03:05:04;;;;;;;39.00;27.67;;;9.90;71.90;;;;;;5073120;28;20234;-57
2022/03/17 03:07:31;;;;;;;40.38;27.40;;;9.80;71.60;;;;;;5072419;28;20291;-57
2022/03/17 03:09:58;;;;;;;43.17;28.30;;;9.80;71.70;;;;;;5072253;28;20204;-57
2022/03/17 03:12:25;;;;;;;40.65;28.58;;;9.80;72.10;;;;;;5072926;28;20307;-57
2022/03/17 03:14:53;;;;;;;39.97;28.33;;;9.80;72.10;;;;;;5072997;28;20277;-57
2022/03/17 03:17:22;;;;;;;41.15;27.98;;;9.90;72.00;;;;;;5072902;28;20318;-57
2022/03/17 03:19:49;;;;;;;42.60;28.23;;;9.90;72.00;;;;;;5072902;28;20201;-57
2022/03/17 03:22:18;;;;;;;41.33;27.60;;;10.00;71.80;;;;;;5072373;28;20242;-57
2022/03/17 03:24:44;;;;;;;39.72;27.35;;;10.00;71.70;;;;;;5071481;28;20288;-57
2022/03/17 03:27:11;;;;;;;44.33;28.67;;;10.00;71.70;;;;;;5072835;28;20207;-57
2022/03/17 03:29:38;;;;;;;42.13;30.08;;;10.00;71.70;;;;;;5072760;28;20713;-57
2022/03/17 03:32:07;;;;;;;41.70;28.70;;;10.00;71.80;;;;;;5072743;28;20296;-57
2022/03/17 03:34:35;;;;;;;42.10;28.40;;;10.00;71.80;;;;;;5072764;28;20200;-57
2022/03/17 03:39:46;;;;;;;43.28;28.90;;;10.00;71.60;;;;;;5071525;28;20204;-57
2022/03/17 03:42:13;;;;;;;42.58;29.75;;;9.90;71.80;;;;;;5072620;28;20624;-57
2022/03/17 03:44:40;;;;;;;39.22;27.38;;;9.80;71.80;;;;;;5072675;28;20638;-57
2022/03/17 03:47:08;;;;;;;41.17;26.35;;;9.80;71.90;;;;;;5072550;28;20205;-57
2022/03/17 03:49:39;;;;;;;36.75;27.00;;;9.80;72.20;;;;;;5072384;28;20204;-57
2022/03/17 03:52:06;;;;;;;37.20;27.70;;;9.80;72.50;;;;;;5076288;28;20204;-58
2022/03/17 03:54:33;;;;;;;41.88;29.23;;;9.80;72.70;;;;;;5075324;28;20207;-57
2022/03/17 03:57:00;;;;;;;41.72;28.40;;;9.80;72.60;;;;;;5076519;28;20566;-57
2022/03/17 03:59:29;;;;;;;39.75;28.00;;;9.80;72.60;;;;;;5076511;28;20196;-57
2022/03/17 04:01:58;;;;;;;40.33;28.00;;;9.80;72.80;;;;;;5076256;28;20228;-57
2022/03/17 04:04:27;;;;;;;43.65;29.10;;;9.80;72.70;;;;;;5076441;28;20207;-57
2022/03/17 04:06:55;;;;;;;40.90;29.20;;;9.70;72.70;;;;;;5076115;28;20211;-57
2022/03/17 04:09:25;;;;;;;41.42;28.63;;;9.70;72.50;;;;;;5074968;28;20623;-57
2022/03/17 04:11:53;;;;;;;43.60;29.05;;;9.70;72.60;;;;;;5076050;28;20209;-57
2022/03/17 04:14:21;;;;;;;41.00;28.77;;;9.60;72.40;;;;;;5076211;28;20752;-57
2022/03/17 04:16:48;;;;;;;43.88;28.85;;;9.60;72.10;;;;;;5075888;28;20319;-57
2022/03/17 04:19:16;;;;;;;37.45;26.73;;;9.50;72.10;;;;;;5076090;28;20283;-57
2022/03/17 04:21:45;;;;;;;43.58;28.52;;;9.50;72.10;;;;;;5075621;28;20229;-57
2022/03/17 04:24:12;;;;;;;41.15;28.63;;;9.40;72.70;;;;;;5074694;28;20201;-58
2022/03/17 04:26:39;;;;;;;41.10;27.92;;;9.30;72.40;;;;;;5075895;28;20211;-57
2022/03/17 04:29:06;;;;;;;43.85;29.25;;;9.20;72.90;;;;;;5075864;28;20292;-57
2022/03/17 04:31:34;;;;;;;42.42;30.45;;;9.20;72.70;;;;;;5075876;28;20200;-57
2022/03/17 04:34:01;;;;;;;42.15;29.08;;;9.20;72.60;;;;;;5075740;28;20608;-57
2022/03/17 04:36:28;;;;;;;41.83;28.50;;;9.20;72.70;;;;;;5075730;28;20623;-57
2022/03/17 04:38:56;;;;;;;42.95;28.33;;;9.30;72.70;;;;;;5074483;28;20211;-57
2022/03/17 04:41:23;;;;;;;41.25;28.13;;;9.40;72.40;;;;;;5075607;28;20260;-57
2022/03/17 04:43:50;;;;;;;40.97;28.80;;;9.50;72.20;;;;;;5075555;28;20204;-57
2022/03/17 04:46:17;;;;;;;40.30;28.20;;;9.50;72.50;;;;;;5075547;28;20196;-57
2022/03/17 04:48:44;;;;;;;39.95;26.77;;;9.50;71.60;;;;;;5075430;28;20217;-57
2022/03/17 04:51:11;;;;;;;38.95;27.10;;;9.40;72.10;;;;;;5075471;28;20797;-57
2022/03/17 04:53:38;;;;;;;38.95;27.70;;;9.50;72.10;;;;;;5074119;28;20296;-57
2022/03/17 04:56:08;;;;;;;42.80;28.00;;;9.50;72.20;;;;;;5075465;28;20207;-57
2022/03/17 04:58:36;;;;;;;43.72;28.40;;;9.60;72.10;;;;;;5075242;28;20243;-57
2022/03/17 05:01:05;;;;;;;39.42;27.48;;;9.60;72.00;;;;;;5075221;28;20209;-57
2022/03/17 05:03:33;;;;;;;40.75;29.17;;;9.40;71.90;;;;;;5074582;28;20200;-57
2022/03/17 05:06:00;;;;;;;41.28;27.95;;;9.30;72.10;;;;;;5075216;28;20690;-57
2022/03/17 05:08:27;;;;;;;43.15;28.90;;;9.30;72.40;;;;;;5073841;28;20201;-57
2022/03/17 05:10:54;;;;;;;41.08;27.77;;;9.40;72.50;;;;;;5075087;28;20211;-57
2022/03/17 05:13:23;;;;;;;39.35;27.02;;;9.40;72.60;;;;;;5075141;28;20209;-57
2022/03/17 05:15:52;;;;;;;41.72;28.38;;;9.50;72.60;;;;;;5075033;28;20229;-57
2022/03/17 05:18:20;;;;;;;41.83;28.33;;;9.50;72.70;;;;;;5074955;28;20604;-57
2022/03/17 05:20:47;;;;;;;42.85;29.23;;;9.50;72.40;;;;;;5074961;28;20291;-57
2022/03/17 05:23:16;;;;;;;46.95;29.05;;;9.40;72.10;;;;;;5073398;28;20298;-57
2022/03/17 05:25:44;;;;;;;38.72;26.90;;;9.20;72.60;;;;;;5074818;28;20298;-57
2022/03/17 05:28:12;;;;;;;44.83;30.90;;;9.10;72.90;;;;;;5074855;28;20243;-57
2022/03/17 05:30:43;;;;;;;43.58;28.25;;;9.20;73.10;;;;;;5074908;28;20752;-57
2022/03/17 05:33:11;;;;;;;42.72;29.00;;;9.30;72.90;;;;;;5074616;28;20678;-57
2022/03/17 05:35:38;;;;;;;43.08;28.10;;;9.40;72.80;;;;;;5074660;28;20203;-57
2022/03/17 05:38:06;;;;;;;41.20;27.35;;;9.50;72.70;;;;;;5073104;28;20212;-57
2022/03/17 05:40:35;;;;;;;44.50;30.60;;;9.40;72.10;;;;;;5074657;28;20204;-57
2022/03/17 05:43:06;;;;;;;48.47;29.80;;;9.40;72.20;;;;;;5074399;28;20228;-57
2022/03/17 05:45:34;;;;;;;44.35;29.02;;;9.30;72.80;;;;;;5074503;28;20774;-57
2022/03/17 05:48:04;;;;;;;43.72;28.83;;;9.30;72.90;;;;;;5074447;28;20209;-57
2022/03/17 05:50:32;;;;;;;40.70;28.80;;;9.20;72.70;;;;;;5074252;28;20201;-57
2022/03/17 05:52:59;;;;;;;42.88;28.70;;;9.20;72.80;;;;;;5072897;28;20204;-57
2022/03/17 05:55:28;;;;;;;42.25;28.02;;;9.20;72.80;;;;;;5074364;28;20201;-57
2022/03/17 05:57:56;;;;;;;42.10;27.42;;;9.10;72.90;;;;;;5074315;28;20621;-57
2022/03/17 06:00:25;;;;;;;41.80;29.02;;;9.10;72.80;;;;;;5074163;28;20254;-57
2022/03/17 06:02:53;;;;;;;45.45;30.42;;;8.90;73.60;;;;;;5074046;28;20232;-57
2022/03/17 06:05:22;;;;;;;44.45;29.70;;;8.90;73.70;;;;;;5074096;28;20693;-57
2022/03/17 06:07:50;;;;;;;44.97;29.15;;;9.00;73.40;;;;;;5072527;28;20222;-57
2022/03/17 06:10:21;;;;;;;43.97;28.80;;;9.00;73.20;;;;;;5074006;28;20609;-57
2022/03/17 06:12:51;;;;;;;42.90;26.85;;;9.10;73.40;;;;;;5073900;28;20201;-57
2022/03/17 06:15:18;;;;;;;40.03;27.20;;;9.10;73.70;;;;;;5072764;28;20710;-57
2022/03/17 06:17:47;;;;;;;44.40;29.83;;;9.00;74.00;;;;;;5073641;28;20543;-57
2022/03/17 06:20:16;;;;;;;42.67;29.15;;;8.90;74.40;;;;;;5073895;28;20299;-57
2022/03/17 06:22:47;;;;;;;45.50;30.00;;;8.70;74.60;;;;;;5071985;28;20254;-57
2022/03/17 06:25:15;;;;;;;42.97;28.13;;;8.80;74.50;;;;;;5073750;28;20211;-57
2022/03/17 06:27:43;;;;;;;45.35;30.90;;;8.80;74.70;;;;;;5073673;28;20566;-57
2022/03/17 06:30:12;;;;;;;43.70;28.95;;;8.60;75.10;;;;;;5073312;28;20200;-57
2022/03/17 06:32:40;;;;;;;48.72;30.48;;;8.50;75.40;;;;;;5073624;28;20288;-57
2022/03/17 06:35:08;;;;;;;53.38;28.15;;;8.40;75.90;;;;;;5073452;28;20201;-57
2022/03/17 06:37:35;;;;;;;46.78;28.88;;;8.50;75.60;;;;;;5072809;28;20568;-57
2022/03/17 06:40:04;;;;;;;44.92;30.15;;;8.50;75.90;;;;;;5072870;28;20208;-57
2022/03/17 06:42:31;;;;;;;44.72;29.88;;;8.60;75.60;;;;;;5073129;28;20225;-57
2022/03/17 06:44:59;;;;;;;47.78;29.38;;;8.80;74.70;;;;;;5073187;28;20687;-58
2022/03/17 06:47:26;;;;;;;42.97;27.92;;;8.90;74.40;;;;;;5073022;28;20652;-57
2022/03/17 06:49:53;;;;;;;46.72;29.77;;;8.90;74.40;;;;;;5073200;28;20200;-57
2022/03/17 06:52:20;;;;;;;48.80;29.73;;;8.80;74.80;;;;;;5073074;28;20228;-57
2022/03/17 06:54:47;;;;;;;50.33;31.92;;;8.90;74.70;;;;;;5071611;28;20204;-57
2022/03/17 06:57:19;;;;;;;43.88;28.67;;;8.80;73.90;;;;;;5072913;28;20204;-57
2022/03/17 06:59:46;;;;;;;46.08;30.13;;;8.80;74.10;;;;;;5073281;28;20258;-57
2022/03/17 07:02:13;;;;;;;46.33;30.58;;;8.80;74.20;;;;;;5072990;28;20285;-57
2022/03/17 07:04:43;;;;;;;45.03;29.98;;;8.80;74.10;;;;;;5072919;28;20300;-57
2022/03/17 07:07:10;;;;;;;50.40;30.63;;;8.90;74.20;;;;;;5072974;28;20287;-57
2022/03/17 07:09:38;;;;;;;53.28;32.38;;;8.90;74.10;;;;;;5071764;28;20295;-57
2022/03/17 07:12:06;;;;;;;50.28;32.30;;;8.90;74.30;;;;;;5072816;28;20296;-57
2022/03/17 07:14:34;;;;;;;53.65;30.65;;;8.80;74.60;;;;;;5072748;28;20220;-57
2022/03/17 07:17:01;;;;;;;47.10;29.17;;;8.80;74.80;;;;;;5072972;28;20547;-57
2022/03/17 07:19:29;;;;;;;48.95;30.90;;;8.80;75.10;;;;;;5072914;28;20307;-57
2022/03/17 07:21:56;;;;;;;47.00;30.02;;;8.80;75.20;;;;;;5072425;28;20599;-57
2022/03/17 07:24:23;;;;;;;51.55;31.40;;;8.90;75.20;;;;;;5071260;28;20205;-57
2022/03/17 07:26:50;;;;;;;49.83;29.67;;;8.90;75.50;;;;;;5072353;28;20207;-57
2022/03/17 07:29:17;;;;;;;47.67;30.50;;;9.00;75.10;;;;;;5072706;28;20223;-57
2022/03/17 07:31:46;;;;;;;51.92;31.55;;;8.90;75.80;;;;;;5072802;28;20230;-57
2022/03/17 07:34:13;;;;;;;50.53;32.40;;;9.00;75.50;;;;;;5072548;28;20266;-57
2022/03/17 07:36:40;;;;;;;51.67;31.40;;;9.10;75.40;;;;;;5072598;28;20201;-57
2022/03/17 07:39:08;;;;;;;49.53;30.50;;;9.10;75.70;;;;;;5071203;28;20638;-57
2022/03/17 07:41:35;;;;;;;50.35;30.85;;;9.00;76.30;;;;;;5072699;28;20215;-57
2022/03/17 07:44:02;;;;;;;54.53;31.60;;;9.00;76.50;;;;;;5072461;28;20270;-57
2022/03/17 07:46:29;;;;;;;49.65;31.25;;;9.10;76.30;;;;;;5072568;28;20211;-57
2022/03/17 07:48:57;;;;;;;47.33;31.05;;;9.10;76.10;;;;;;5072564;28;20205;-57
2022/03/17 07:51:24;;;;;;;53.80;31.35;;;9.00;76.10;;;;;;5072337;28;20204;-57
2022/03/17 07:53:51;;;;;;;49.88;30.90;;;9.00;76.60;;;;;;5071147;28;20750;-57
2022/03/17 07:56:20;;;;;;;51.83;32.63;;;9.00;76.60;;;;;;5072677;28;20296;-57
2022/03/17 07:58:47;;;;;;;50.17;30.70;;;9.00;76.70;;;;;;5072480;28;20548;-57
2022/03/17 08:01:15;;;;;;;55.08;32.42;;;8.90;76.80;;;;;;5072374;28;20610;-57
2022/03/17 08:03:42;;;;;;;48.60;29.50;;;8.90;77.00;;;;;;5072266;28;20228;-57
2022/03/17 08:06:12;;;;;;;47.40;30.30;;;8.70;77.70;;;;;;5072144;28;20279;-57
2022/03/17 08:08:39;;;;;;;48.47;30.42;;;8.70;77.60;;;;;;5070912;28;20694;-57
2022/03/17 08:11:06;;;;;;;48.13;31.00;;;8.80;77.60;;;;;;5072204;28;20678;-57
2022/03/17 08:13:33;;;;;;;46.90;30.08;;;8.90;77.30;;;;;;5072141;28;20734;-57
2022/03/17 08:16:01;;;;;;;49.65;30.60;;;8.90;77.30;;;;;;5072327;28;20211;-57
2022/03/17 08:18:29;;;;;;;45.78;28.52;;;8.80;77.70;;;;;;5072428;28;20208;-57
2022/03/17 08:20:56;;;;;;;48.97;30.05;;;8.90;77.30;;;;;;5072151;28;20235;-57
2022/03/17 08:23:24;;;;;;;47.38;30.45;;;9.20;76.70;;;;;;5070627;28;20240;-57
2022/03/17 08:25:51;;;;;;;44.13;29.35;;;9.40;76.30;;;;;;5072275;28;20296;-57
2022/03/17 08:28:19;;;;;;;43.65;28.45;;;9.60;75.90;;;;;;5072072;28;20201;-57
2022/03/17 08:30:49;;;;;;;47.35;30.67;;;9.70;75.60;;;;;;5072192;28;20251;-57
2022/03/17 08:33:17;;;;;;;48.40;29.30;;;9.80;74.90;;;;;;5072081;28;20780;-57
2022/03/17 08:35:45;;;;;;;46.20;30.50;;;9.70;75.10;;;;;;5072048;28;20204;-57
2022/03/17 08:38:12;;;;;;;52.30;32.03;;;9.70;74.70;;;;;;5072725;28;20674;-57
2022/03/17 08:40:42;;;;;;;46.88;30.88;;;9.80;74.80;;;;;;5075665;28;20204;-57
2022/03/17 08:43:10;;;;;;;43.63;30.45;;;9.90;74.30;;;;;;5075554;28;20648;-57
2022/03/17 08:51:06;;;;;;;51.60;33.42;;;10.00;74.20;;;;;;5075508;28;20334;-57
2022/03/17 08:53:33;;;;;;;49.30;31.45;;;10.00;74.10;;;;;;5074149;28;20200;-57
2022/03/17 08:56:02;;;;;;;54.30;33.53;;;9.90;74.40;;;;;;5075587;28;20211;-57
2022/03/17 08:58:30;;;;;;;49.63;32.60;;;9.90;74.30;;;;;;5075323;28;20201;-57
2022/03/17 09:00:58;;;;;;;50.38;32.70;;;9.90;74.50;;;;;;5075374;28;20225;-57
2022/03/17 09:03:26;;;;;;;48.10;30.90;;;10.00;74.50;;;;;;5075232;28;20282;-57
2022/03/17 09:05:54;;;;;;;47.47;30.60;;;9.90;75.70;;;;;;5075431;28;20196;-58
2022/03/17 09:08:21;;;;;;;48.67;32.45;;;9.70;75.80;;;;;;5073861;28;20728;-57
2022/03/17 09:10:48;;;;;;;47.88;32.25;;;9.60;76.00;;;;;;5075088;28;20227;-57
2022/03/17 09:13:17;;;;;;;53.63;33.10;;;9.70;75.60;;;;;;5075138;28;20625;-58
2022/03/17 09:15:44;;;;;;;49.40;31.02;;;9.80;75.00;;;;;;5075190;28;20244;-57
2022/03/17 09:18:12;;;;;;;51.67;33.63;;;9.80;75.40;;;;;;5075078;28;20750;-57
2022/03/17 09:20:40;;;;;;;49.42;31.23;;;9.90;75.40;;;;;;5075023;28;20207;-58
2022/03/17 09:23:07;;;;;;;51.33;32.20;;;9.90;75.70;;;;;;5073305;28;20232;-58
2022/03/17 09:25:35;;;;;;;50.58;31.52;;;9.90;75.50;;;;;;5074779;28;20200;-57
2022/03/17 09:28:03;;;;;;;48.35;31.88;;;9.90;75.40;;;;;;5074825;28;20204;-58
2022/03/17 09:30:32;;;;;;;49.88;30.02;;;10.00;75.10;;;;;;5074897;28;20610;-57
2022/03/17 09:33:01;;;;;;;45.15;27.52;;;10.00;75.10;;;;;;5074767;28;20574;-57
2022/03/17 09:35:28;;;;;;;47.75;29.88;;;10.00;75.30;;;;;;5074727;28;20283;-57
2022/03/17 09:37:55;;;;;;;42.67;28.85;;;10.00;75.10;;;;;;5073267;28;20204;-57
2022/03/17 09:40:22;;;;;;;46.92;31.88;;;10.10;75.00;;;;;;5074685;28;20295;-57
2022/03/17 09:43:18;;;;;;;44.47;30.48;;;10.30;74.80;;;;;;5074444;28;20729;-57
2022/03/17 09:45:40;;;;;;;47.42;29.90;;;10.50;74.50;;;;;;5074322;28;20211;-57
2022/03/17 09:48:09;;;;;;;49.33;32.10;;;10.50;74.30;;;;;;5074110;28;20672;-57
2022/03/17 09:50:36;;;;;;;44.45;29.85;;;10.60;74.20;;;;;;5074360;28;20207;-57
2022/03/17 09:53:03;;;;;;;45.10;29.40;;;10.80;74.20;;;;;;5072949;28;20205;-57
2022/03/17 09:55:30;;;;;;;44.75;31.00;;;10.70;74.10;;;;;;5074633;28;20258;-57
2022/03/17 09:57:58;;;;;;;42.38;30.08;;;10.90;74.50;;;;;;5074203;28;20232;-57
2022/03/17 10:00:47;;;;;;;38.55;26.90;;;11.10;73.60;;;;;;5074283;28;20204;-57
2022/03/17 10:03:13;;;;;;;41.90;27.77;;;11.30;74.00;;;;;;5073896;28;20228;-57
2022/03/17 10:05:40;;;;;;;42.20;29.73;;;11.50;73.50;;;;;;5074114;28;20236;-57
2022/03/17 10:08:07;;;;;;;42.08;28.15;;;11.60;72.60;;;;;;5072807;28;20215;-58
2022/03/17 10:10:37;;;;;;;42.28;28.23;;;11.60;72.90;;;;;;5074067;28;20238;-57
2022/03/17 10:13:11;;;;;;;40.97;27.10;;;11.70;73.30;;;;;;5073836;28;20260;-57
2022/03/17 10:15:38;;;;;;;41.83;29.23;;;11.90;73.30;;;;;;5073615;28;20292;-57
2022/03/17 10:18:20;;;;;;;44.78;30.55;;;12.10;73.00;;;;;;5073861;28;20570;-59
2022/03/17 10:20:47;;;;;;;43.17;30.00;;;12.20;72.70;;;;;;5073711;28;20231;-58
2022/03/17 10:23:14;;;;;;;39.60;28.20;;;12.40;72.40;;;;;;5072259;28;20327;-58
2022/03/17 10:25:41;;;;;;;37.25;27.92;;;12.50;72.40;;;;;;5073835;28;20205;-58
2022/03/17 10:28:17;;;;;;;39.63;27.42;;;12.50;72.00;;;;;;5073619;28;20255;-58
2022/03/17 10:30:43;;;;;;;42.08;28.35;;;12.60;72.00;;;;;;5073561;28;20212;-58
2022/03/17 10:33:14;;;;;;;40.58;28.60;;;12.70;71.80;;;;;;5073478;28;20211;-58
2022/03/17 10:35:45;;;;;;;38.35;26.83;;;12.70;71.90;;;;;;5073575;28;20209;-58
2022/03/17 10:38:13;;;;;;;42.00;27.45;;;12.80;71.80;;;;;;5072173;28;20207;-58
2022/03/17 10:40:41;;;;;;;39.42;28.27;;;12.80;71.50;;;;;;5073423;28;20201;-58
2022/03/17 10:43:15;;;;;;;38.38;26.83;;;12.90;71.50;;;;;;5073276;28;20307;-58
2022/03/17 10:45:42;;;;;;;35.90;27.38;;;12.90;71.20;;;;;;5073383;28;20200;-58
2022/03/17 10:48:09;;;;;;;37.25;27.55;;;13.00;71.00;;;;;;5073334;28;20200;-58
2022/03/17 10:50:39;;;;;;;39.55;29.15;;;13.00;70.90;;;;;;5073188;28;20251;-58
2022/03/17 10:53:07;;;;;;;37.97;26.48;;;13.00;70.70;;;;;;5071512;28;20211;-58
2022/03/17 10:55:36;;;;;;;41.70;28.92;;;13.00;70.90;;;;;;5073193;28;20236;-58
2022/03/17 10:58:14;;;;;;;38.30;25.95;;;12.90;70.80;;;;;;5073208;28;20208;-58
2022/03/17 11:00:48;;;;;;;39.95;28.20;;;13.00;71.20;;;;;;5072625;28;20211;-58
2022/03/17 11:03:16;;;;;;;41.55;28.38;;;13.00;71.00;;;;;;5073074;28;20278;-58
2022/03/17 11:05:43;;;;;;;43.25;29.00;;;13.00;70.70;;;;;;5073017;28;20299;-58
2022/03/17 11:08:12;;;;;;;44.35;28.38;;;13.10;70.80;;;;;;5071582;28;20300;-58
2022/03/17 11:10:40;;;;;;;41.17;28.52;;;13.10;70.50;;;;;;5072977;28;20205;-58
2022/03/17 11:13:09;;;;;;;42.60;28.98;;;13.10;70.30;;;;;;5072925;28;20256;-58
2022/03/17 11:15:38;;;;;;;37.45;26.45;;;13.00;70.10;;;;;;5072968;28;20288;-58
2022/03/17 11:18:07;;;;;;;40.25;27.55;;;13.00;70.20;;;;;;5072787;28;20667;-58
2022/03/17 11:20:35;;;;;;;41.55;28.38;;;13.00;70.40;;;;;;5072855;28;20205;-58
2022/03/17 11:23:09;;;;;;;47.40;29.75;;;12.90;70.70;;;;;;5071154;28;20363;-58
2022/03/17 11:25:38;;;;;;;41.83;29.45;;;12.90;70.50;;;;;;5072789;28;20201;-58
2022/03/17 11:28:06;;;;;;;43.13;28.30;;;12.90;70.60;;;;;;5072711;28;20232;-58
2022/03/17 11:30:43;;;;;;;36.08;25.02;;;12.90;70.90;;;;;;5072585;28;20207;-58
2022/03/17 11:33:24;;;;;;;38.38;26.13;;;12.80;71.60;;;;;;5072605;28;20207;-58
2022/03/17 11:35:55;;;;;;;38.38;27.15;;;12.70;72.10;;;;;;5072864;28;20332;-58
2022/03/17 11:38:26;;;;;;;37.97;25.23;;;12.70;72.20;;;;;;5071327;28;20211;-58
2022/03/17 11:41:12;;;;;;;37.95;26.30;;;12.60;72.80;;;;;;5072683;28;20204;-58
2022/03/17 11:44:00;;;;;;;40.00;27.90;;;12.60;72.80;;;;;;5072498;28;20311;-58
2022/03/17 11:46:37;;;;;;;37.65;26.20;;;12.50;72.90;;;;;;5072581;28;20659;-58
2022/03/17 11:49:25;;;;;;;42.55;27.55;;;12.50;72.90;;;;;;5072519;28;20295;-58
2022/03/17 11:52:00;;;;;;;41.67;26.70;;;12.50;72.90;;;;;;5072546;28;20204;-58
2022/03/17 11:54:29;;;;;;;42.28;27.77;;;12.50;73.00;;;;;;5071142;28;20222;-58
2022/03/17 11:57:00;;;;;;;46.40;29.55;;;12.50;73.00;;;;;;5072708;28;20201;-58
2022/03/17 11:59:50;;;;;;;44.17;28.90;;;12.50;73.30;;;;;;5072441;28;20304;-58
2022/03/17 12:02:18;;;;;;;44.80;27.80;;;12.50;73.30;;;;;;5072500;28;20209;-58
2022/03/17 12:04:49;;;;;;;48.10;29.70;;;12.50;73.70;;;;;;5072268;28;20229;-58
2022/03/17 12:07:18;;;;;;;48.65;29.67;;;12.50;73.90;;;;;;5072210;28;20720;-58
2022/03/17 12:09:45;;;;;;;47.63;31.35;;;12.40;74.50;;;;;;5071063;28;20204;-57
2022/03/17 12:12:23;;;;;;;53.88;32.67;;;12.40;75.00;;;;;;5072771;28;20227;-58
2022/03/17 12:14:53;;;;;;;50.00;30.13;;;12.30;75.50;;;;;;5076209;28;20205;-58
2022/03/17 12:17:23;;;;;;;50.80;32.20;;;12.10;76.30;;;;;;5076165;28;20208;-58
2022/03/17 12:20:05;;;;;;;54.28;32.72;;;12.00;77.20;;;;;;5076158;28;20291;-58
2022/03/17 12:22:39;;;;;;;54.33;31.33;;;12.00;77.40;;;;;;5075665;28;20239;-58
2022/03/17 12:25:15;;;;;;;55.40;34.45;;;12.00;77.10;;;;;;5075723;28;20225;-58
2022/03/17 12:27:49;;;;;;;53.70;32.00;;;12.00;77.60;;;;;;5076031;28;20253;-58
2022/03/17 12:30:17;;;;;;;50.78;31.58;;;12.00;77.40;;;;;;5075850;28;20751;-58
2022/03/17 12:32:47;;;;;;;48.97;30.02;;;12.00;77.30;;;;;;5075908;28;20287;-58
2022/03/17 12:35:15;;;;;;;48.90;30.33;;;12.10;77.40;;;;;;5075756;28;20204;-58
2022/03/17 12:37:44;;;;;;;53.70;31.38;;;12.10;77.30;;;;;;5074377;28;20205;-58
2022/03/17 12:40:14;;;;;;;48.08;30.23;;;12.20;77.00;;;;;;5075771;28;20287;-58
2022/03/17 12:42:45;;;;;;;51.53;31.38;;;12.20;76.70;;;;;;5075583;28;20564;-58
2022/03/17 12:45:13;;;;;;;48.40;29.08;;;12.20;76.50;;;;;;5075662;28;20631;-58
2022/03/17 12:47:42;;;;;;;48.28;30.27;;;12.20;76.30;;;;;;5075614;28;20233;-58
2022/03/17 12:50:11;;;;;;;45.00;30.50;;;12.20;76.40;;;;;;5075598;28;20235;-58